sensor_id;sensor_type;location;lat;lon;timestamp;P1;durP1;ratioP1;P2;durP2;ratioP2
37445;SDS011;23307;51.136;14.942;2023-04-25T00:00:19;2.95;;;2.65;;
37445;SDS011;23307;51.136;14.942;2023-04-25T00:02:45;6.22;;;2.90;;
37445;SDS011;23307;51.136;14.942;2023-04-25T00:05:11;4.63;;;3.05;;
37445;SDS011;23307;51.136;14.942;2023-04-25T00:07:37;3.30;;;3.00;;
37445;SDS011;23307;51.136;14.942;2023-04-25T00:10:03;3.85;;;2.95;;
37445;SDS011;23307;51.136;14.942;2023-04-25T00:12:29;3.33;;;2.70;;
37445;SDS011;23307;51.136;14.942;2023-04-25T00:14:55;3.33;;;3.03;;
37445;SDS011;23307;51.136;14.942;2023-04-25T00:17:22;3.38;;;2.92;;
37445;SDS011;23307;51.136;14.942;2023-04-25T00:19:49;3.28;;;2.97;;
37445;SDS011;23307;51.136;14.942;2023-04-25T00:22:15;3.92;;;3.03;;
37445;SDS011;23307;51.136;14.942;2023-04-25T00:24:41;3.47;;;3.17;;
37445;SDS011;23307;51.136;14.942;2023-04-25T00:27:06;6.22;;;3.10;;
37445;SDS011;23307;51.136;14.942;2023-04-25T00:29:32;4.13;;;3.30;;
37445;SDS011;23307;51.136;14.942;2023-04-25T00:31:58;4.30;;;3.20;;
37445;SDS011;23307;51.136;14.942;2023-04-25T00:34:23;4.13;;;3.20;;
37445;SDS011;23307;51.136;14.942;2023-04-25T00:36:49;3.75;;;3.38;;
37445;SDS011;23307;51.136;14.942;2023-04-25T00:39:14;6.55;;;3.55;;
37445;SDS011;23307;51.136;14.942;2023-04-25T00:41:40;3.83;;;3.30;;
37445;SDS011;23307;51.136;14.942;2023-04-25T00:44:05;4.80;;;4.03;;
37445;SDS011;23307;51.136;14.942;2023-04-25T00:46:33;3.83;;;3.53;;
37445;SDS011;23307;51.136;14.942;2023-04-25T00:49:00;5.85;;;3.60;;
37445;SDS011;23307;51.136;14.942;2023-04-25T00:51:25;5.13;;;3.90;;
37445;SDS011;23307;51.136;14.942;2023-04-25T00:53:51;6.45;;;4.07;;
37445;SDS011;23307;51.136;14.942;2023-04-25T00:56:17;5.25;;;4.32;;
37445;SDS011;23307;51.136;14.942;2023-04-25T00:58:43;5.38;;;4.28;;
37445;SDS011;23307;51.136;14.942;2023-04-25T01:01:09;5.03;;;3.65;;
37445;SDS011;23307;51.136;14.942;2023-04-25T01:03:37;4.18;;;3.78;;
37445;SDS011;23307;51.136;14.942;2023-04-25T01:06:08;7.45;;;4.60;;
37445;SDS011;23307;51.136;14.942;2023-04-25T01:08:34;6.68;;;4.15;;
37445;SDS011;23307;51.136;14.942;2023-04-25T01:11:01;5.32;;;4.30;;
37445;SDS011;23307;51.136;14.942;2023-04-25T01:13:26;5.32;;;3.90;;
37445;SDS011;23307;51.136;14.942;2023-04-25T01:15:52;5.07;;;4.50;;
37445;SDS011;23307;51.136;14.942;2023-04-25T01:18:18;5.82;;;4.20;;
37445;SDS011;23307;51.136;14.942;2023-04-25T01:20:45;4.60;;;3.63;;
37445;SDS011;23307;51.136;14.942;2023-04-25T01:23:11;4.95;;;3.80;;
37445;SDS011;23307;51.136;14.942;2023-04-25T01:25:37;3.95;;;3.50;;
37445;SDS011;23307;51.136;14.942;2023-04-25T01:28:04;4.78;;;3.42;;
37445;SDS011;23307;51.136;14.942;2023-04-25T01:30:30;4.85;;;3.63;;
37445;SDS011;23307;51.136;14.942;2023-04-25T01:32:55;4.85;;;3.67;;
37445;SDS011;23307;51.136;14.942;2023-04-25T01:35:21;4.00;;;3.47;;
37445;SDS011;23307;51.136;14.942;2023-04-25T01:37:49;4.32;;;3.20;;
37445;SDS011;23307;51.136;14.942;2023-04-25T01:40:15;5.55;;;3.83;;
37445;SDS011;23307;51.136;14.942;2023-04-25T01:42:43;4.40;;;3.40;;
37445;SDS011;23307;51.136;14.942;2023-04-25T01:45:10;4.25;;;3.17;;
37445;SDS011;23307;51.136;14.942;2023-04-25T01:47:37;7.63;;;3.80;;
37445;SDS011;23307;51.136;14.942;2023-04-25T01:50:05;5.33;;;3.70;;
37445;SDS011;23307;51.136;14.942;2023-04-25T01:52:32;5.03;;;2.95;;
37445;SDS011;23307;51.136;14.942;2023-04-25T01:54:57;4.72;;;3.60;;
37445;SDS011;23307;51.136;14.942;2023-04-25T01:57:25;5.80;;;3.65;;
37445;SDS011;23307;51.136;14.942;2023-04-25T01:59:51;7.30;;;3.72;;
37445;SDS011;23307;51.136;14.942;2023-04-25T02:02:20;4.53;;;3.90;;
37445;SDS011;23307;51.136;14.942;2023-04-25T02:04:46;6.55;;;3.38;;
37445;SDS011;23307;51.136;14.942;2023-04-25T02:07:11;4.32;;;3.67;;
37445;SDS011;23307;51.136;14.942;2023-04-25T02:09:36;5.35;;;3.90;;
37445;SDS011;23307;51.136;14.942;2023-04-25T02:12:02;4.30;;;3.90;;
37445;SDS011;23307;51.136;14.942;2023-04-25T02:14:28;5.20;;;3.80;;
37445;SDS011;23307;51.136;14.942;2023-04-25T02:16:53;3.83;;;3.53;;
37445;SDS011;23307;51.136;14.942;2023-04-25T02:19:19;4.57;;;4.18;;
37445;SDS011;23307;51.136;14.942;2023-04-25T02:21:44;5.32;;;3.97;;
37445;SDS011;23307;51.136;14.942;2023-04-25T02:24:10;7.20;;;3.97;;
37445;SDS011;23307;51.136;14.942;2023-04-25T02:26:36;5.32;;;4.10;;
37445;SDS011;23307;51.136;14.942;2023-04-25T02:29:01;5.53;;;4.35;;
37445;SDS011;23307;51.136;14.942;2023-04-25T02:31:27;4.75;;;4.25;;
37445;SDS011;23307;51.136;14.942;2023-04-25T02:33:52;5.43;;;4.23;;
37445;SDS011;23307;51.136;14.942;2023-04-25T02:36:18;5.30;;;4.30;;
37445;SDS011;23307;51.136;14.942;2023-04-25T02:38:43;5.10;;;4.60;;
37445;SDS011;23307;51.136;14.942;2023-04-25T02:41:09;5.78;;;4.18;;
37445;SDS011;23307;51.136;14.942;2023-04-25T02:43:34;5.28;;;4.40;;
37445;SDS011;23307;51.136;14.942;2023-04-25T02:46:00;5.45;;;4.78;;
37445;SDS011;23307;51.136;14.942;2023-04-25T02:48:25;5.43;;;4.55;;
37445;SDS011;23307;51.136;14.942;2023-04-25T02:50:50;5.20;;;4.53;;
37445;SDS011;23307;51.136;14.942;2023-04-25T02:53:16;6.38;;;4.72;;
37445;SDS011;23307;51.136;14.942;2023-04-25T02:55:41;4.97;;;4.45;;
37445;SDS011;23307;51.136;14.942;2023-04-25T02:58:07;6.30;;;4.60;;
37445;SDS011;23307;51.136;14.942;2023-04-25T03:00:32;7.13;;;4.40;;
37445;SDS011;23307;51.136;14.942;2023-04-25T03:02:58;6.22;;;4.43;;
37445;SDS011;23307;51.136;14.942;2023-04-25T03:05:23;4.43;;;4.03;;
37445;SDS011;23307;51.136;14.942;2023-04-25T03:07:49;4.97;;;3.97;;
37445;SDS011;23307;51.136;14.942;2023-04-25T03:10:14;6.97;;;4.30;;
37445;SDS011;23307;51.136;14.942;2023-04-25T03:12:40;5.13;;;4.20;;
37445;SDS011;23307;51.136;14.942;2023-04-25T03:15:05;5.28;;;4.75;;
37445;SDS011;23307;51.136;14.942;2023-04-25T03:17:31;5.20;;;4.28;;
37445;SDS011;23307;51.136;14.942;2023-04-25T03:19:57;5.30;;;4.40;;
37445;SDS011;23307;51.136;14.942;2023-04-25T03:22:22;6.18;;;4.10;;
37445;SDS011;23307;51.136;14.942;2023-04-25T03:24:49;5.70;;;4.43;;
37445;SDS011;23307;51.136;14.942;2023-04-25T03:27:15;4.70;;;4.30;;
37445;SDS011;23307;51.136;14.942;2023-04-25T03:29:40;5.30;;;4.70;;
37445;SDS011;23307;51.136;14.942;2023-04-25T03:32:06;6.28;;;4.53;;
37445;SDS011;23307;51.136;14.942;2023-04-25T03:34:31;4.97;;;4.43;;
37445;SDS011;23307;51.136;14.942;2023-04-25T03:36:57;5.05;;;4.55;;
37445;SDS011;23307;51.136;14.942;2023-04-25T03:39:22;5.00;;;4.35;;
37445;SDS011;23307;51.136;14.942;2023-04-25T03:41:48;5.93;;;4.50;;
37445;SDS011;23307;51.136;14.942;2023-04-25T03:44:13;4.88;;;4.25;;
37445;SDS011;23307;51.136;14.942;2023-04-25T03:46:39;5.43;;;4.38;;
37445;SDS011;23307;51.136;14.942;2023-04-25T03:49:05;6.15;;;4.22;;
37445;SDS011;23307;51.136;14.942;2023-04-25T03:51:30;7.32;;;5.07;;
37445;SDS011;23307;51.136;14.942;2023-04-25T03:53:56;4.97;;;4.47;;
37445;SDS011;23307;51.136;14.942;2023-04-25T03:56:21;5.90;;;4.57;;
37445;SDS011;23307;51.136;14.942;2023-04-25T03:58:47;5.20;;;4.43;;
37445;SDS011;23307;51.136;14.942;2023-04-25T04:01:12;5.68;;;4.70;;
37445;SDS011;23307;51.136;14.942;2023-04-25T04:03:38;5.05;;;4.55;;
37445;SDS011;23307;51.136;14.942;2023-04-25T04:06:04;6.25;;;4.53;;
37445;SDS011;23307;51.136;14.942;2023-04-25T04:08:30;5.55;;;4.75;;
37445;SDS011;23307;51.136;14.942;2023-04-25T04:10:57;4.75;;;4.32;;
37445;SDS011;23307;51.136;14.942;2023-04-25T04:13:23;6.07;;;5.10;;
37445;SDS011;23307;51.136;14.942;2023-04-25T04:15:50;6.55;;;5.13;;
37445;SDS011;23307;51.136;14.942;2023-04-25T04:18:16;6.53;;;4.82;;
37445;SDS011;23307;51.136;14.942;2023-04-25T04:20:41;6.63;;;5.00;;
37445;SDS011;23307;51.136;14.942;2023-04-25T04:23:07;6.97;;;5.03;;
37445;SDS011;23307;51.136;14.942;2023-04-25T04:25:32;5.70;;;5.00;;
37445;SDS011;23307;51.136;14.942;2023-04-25T04:27:59;7.63;;;4.85;;
37445;SDS011;23307;51.136;14.942;2023-04-25T04:30:26;5.85;;;5.22;;
37445;SDS011;23307;51.136;14.942;2023-04-25T04:32:54;7.60;;;5.13;;
37445;SDS011;23307;51.136;14.942;2023-04-25T04:35:20;7.90;;;5.00;;
37445;SDS011;23307;51.136;14.942;2023-04-25T04:37:47;7.00;;;4.60;;
37445;SDS011;23307;51.136;14.942;2023-04-25T04:40:13;8.20;;;4.93;;
37445;SDS011;23307;51.136;14.942;2023-04-25T04:42:40;6.88;;;5.15;;
37445;SDS011;23307;51.136;14.942;2023-04-25T04:45:06;7.07;;;4.97;;
37445;SDS011;23307;51.136;14.942;2023-04-25T04:47:32;7.18;;;5.00;;
37445;SDS011;23307;51.136;14.942;2023-04-25T04:49:58;8.73;;;5.43;;
37445;SDS011;23307;51.136;14.942;2023-04-25T04:52:24;6.13;;;5.53;;
37445;SDS011;23307;51.136;14.942;2023-04-25T04:54:50;6.53;;;5.35;;
37445;SDS011;23307;51.136;14.942;2023-04-25T04:57:15;7.63;;;5.30;;
37445;SDS011;23307;51.136;14.942;2023-04-25T04:59:41;7.60;;;5.30;;
37445;SDS011;23307;51.136;14.942;2023-04-25T05:02:07;5.53;;;4.65;;
37445;SDS011;23307;51.136;14.942;2023-04-25T05:04:32;5.30;;;4.80;;
37445;SDS011;23307;51.136;14.942;2023-04-25T05:06:58;12.73;;;5.55;;
37445;SDS011;23307;51.136;14.942;2023-04-25T05:09:23;5.63;;;4.85;;
37445;SDS011;23307;51.136;14.942;2023-04-25T05:11:52;8.43;;;5.15;;
37445;SDS011;23307;51.136;14.942;2023-04-25T05:14:17;7.88;;;4.78;;
37445;SDS011;23307;51.136;14.942;2023-04-25T05:16:43;7.22;;;4.65;;
37445;SDS011;23307;51.136;14.942;2023-04-25T05:19:09;5.00;;;4.25;;
37445;SDS011;23307;51.136;14.942;2023-04-25T05:21:34;6.95;;;4.40;;
37445;SDS011;23307;51.136;14.942;2023-04-25T05:24:00;8.30;;;4.95;;
37445;SDS011;23307;51.136;14.942;2023-04-25T05:26:26;6.97;;;4.78;;
37445;SDS011;23307;51.136;14.942;2023-04-25T05:28:55;5.20;;;4.05;;
37445;SDS011;23307;51.136;14.942;2023-04-25T05:31:24;5.10;;;4.25;;
37445;SDS011;23307;51.136;14.942;2023-04-25T05:33:50;6.25;;;4.18;;
37445;SDS011;23307;51.136;14.942;2023-04-25T05:36:16;4.97;;;4.18;;
37445;SDS011;23307;51.136;14.942;2023-04-25T05:38:41;6.95;;;4.68;;
37445;SDS011;23307;51.136;14.942;2023-04-25T05:41:07;5.72;;;4.45;;
37445;SDS011;23307;51.136;14.942;2023-04-25T05:43:32;6.20;;;4.32;;
37445;SDS011;23307;51.136;14.942;2023-04-25T05:45:58;5.13;;;4.10;;
37445;SDS011;23307;51.136;14.942;2023-04-25T05:48:24;7.13;;;3.92;;
37445;SDS011;23307;51.136;14.942;2023-04-25T05:50:49;5.97;;;3.90;;
37445;SDS011;23307;51.136;14.942;2023-04-25T05:53:16;6.00;;;3.60;;
37445;SDS011;23307;51.136;14.942;2023-04-25T05:55:42;7.90;;;4.45;;
37445;SDS011;23307;51.136;14.942;2023-04-25T05:58:07;8.65;;;4.25;;
37445;SDS011;23307;51.136;14.942;2023-04-25T06:00:33;5.43;;;3.80;;
37445;SDS011;23307;51.136;14.942;2023-04-25T06:02:59;6.32;;;3.70;;
37445;SDS011;23307;51.136;14.942;2023-04-25T06:05:24;4.28;;;3.00;;
37445;SDS011;23307;51.136;14.942;2023-04-25T06:07:50;6.43;;;3.20;;
37445;SDS011;23307;51.136;14.942;2023-04-25T06:10:15;5.03;;;2.50;;
37445;SDS011;23307;51.136;14.942;2023-04-25T06:12:41;5.00;;;2.50;;
37445;SDS011;23307;51.136;14.942;2023-04-25T06:15:06;5.18;;;2.88;;
37445;SDS011;23307;51.136;14.942;2023-04-25T06:17:32;4.22;;;2.80;;
37445;SDS011;23307;51.136;14.942;2023-04-25T06:19:58;4.05;;;3.08;;
37445;SDS011;23307;51.136;14.942;2023-04-25T06:22:24;5.00;;;2.70;;
37445;SDS011;23307;51.136;14.942;2023-04-25T06:24:49;6.95;;;3.53;;
37445;SDS011;23307;51.136;14.942;2023-04-25T06:27:14;4.63;;;2.85;;
37445;SDS011;23307;51.136;14.942;2023-04-25T06:29:40;7.95;;;2.78;;
37445;SDS011;23307;51.136;14.942;2023-04-25T06:32:05;6.38;;;3.50;;
37445;SDS011;23307;51.136;14.942;2023-04-25T06:34:31;5.95;;;3.42;;
37445;SDS011;23307;51.136;14.942;2023-04-25T06:36:56;5.82;;;3.15;;
37445;SDS011;23307;51.136;14.942;2023-04-25T06:39:22;7.07;;;3.20;;
37445;SDS011;23307;51.136;14.942;2023-04-25T06:41:49;3.67;;;2.60;;
37445;SDS011;23307;51.136;14.942;2023-04-25T06:44:15;4.45;;;3.38;;
37445;SDS011;23307;51.136;14.942;2023-04-25T06:46:40;4.22;;;2.95;;
37445;SDS011;23307;51.136;14.942;2023-04-25T06:49:06;6.72;;;3.80;;
37445;SDS011;23307;51.136;14.942;2023-04-25T06:51:31;5.10;;;3.72;;
37445;SDS011;23307;51.136;14.942;2023-04-25T06:53:57;7.38;;;3.67;;
37445;SDS011;23307;51.136;14.942;2023-04-25T06:56:22;7.40;;;2.75;;
37445;SDS011;23307;51.136;14.942;2023-04-25T06:58:48;3.47;;;2.92;;
37445;SDS011;23307;51.136;14.942;2023-04-25T07:01:14;7.80;;;3.20;;
37445;SDS011;23307;51.136;14.942;2023-04-25T07:03:39;5.50;;;4.00;;
37445;SDS011;23307;51.136;14.942;2023-04-25T07:06:05;6.85;;;3.50;;
37445;SDS011;23307;51.136;14.942;2023-04-25T07:08:31;8.10;;;3.92;;
37445;SDS011;23307;51.136;14.942;2023-04-25T07:10:56;5.88;;;3.08;;
37445;SDS011;23307;51.136;14.942;2023-04-25T07:13:21;4.53;;;2.85;;
37445;SDS011;23307;51.136;14.942;2023-04-25T07:15:47;8.25;;;3.53;;
37445;SDS011;23307;51.136;14.942;2023-04-25T07:18:13;5.38;;;3.30;;
37445;SDS011;23307;51.136;14.942;2023-04-25T07:20:39;4.93;;;3.30;;
37445;SDS011;23307;51.136;14.942;2023-04-25T07:23:04;6.45;;;3.55;;
37445;SDS011;23307;51.136;14.942;2023-04-25T07:25:30;7.35;;;3.08;;
37445;SDS011;23307;51.136;14.942;2023-04-25T07:27:55;5.63;;;3.17;;
37445;SDS011;23307;51.136;14.942;2023-04-25T07:30:21;4.70;;;3.13;;
37445;SDS011;23307;51.136;14.942;2023-04-25T07:32:47;4.57;;;3.00;;
37445;SDS011;23307;51.136;14.942;2023-04-25T07:35:13;5.00;;;3.25;;
37445;SDS011;23307;51.136;14.942;2023-04-25T07:37:39;5.60;;;3.00;;
37445;SDS011;23307;51.136;14.942;2023-04-25T07:40:04;6.05;;;3.00;;
37445;SDS011;23307;51.136;14.942;2023-04-25T07:42:30;4.47;;;2.70;;
37445;SDS011;23307;51.136;14.942;2023-04-25T07:44:56;4.25;;;2.67;;
37445;SDS011;23307;51.136;14.942;2023-04-25T07:47:22;4.57;;;2.65;;
37445;SDS011;23307;51.136;14.942;2023-04-25T07:49:47;6.88;;;3.58;;
37445;SDS011;23307;51.136;14.942;2023-04-25T07:52:13;4.35;;;2.97;;
37445;SDS011;23307;51.136;14.942;2023-04-25T07:54:39;3.97;;;2.90;;
37445;SDS011;23307;51.136;14.942;2023-04-25T07:57:04;5.00;;;2.22;;
37445;SDS011;23307;51.136;14.942;2023-04-25T07:59:31;3.35;;;2.45;;
37445;SDS011;23307;51.136;14.942;2023-04-25T08:01:57;2.83;;;2.28;;
37445;SDS011;23307;51.136;14.942;2023-04-25T08:04:22;4.28;;;2.33;;
37445;SDS011;23307;51.136;14.942;2023-04-25T08:06:48;3.80;;;2.63;;
37445;SDS011;23307;51.136;14.942;2023-04-25T08:09:15;2.63;;;2.20;;
37445;SDS011;23307;51.136;14.942;2023-04-25T08:11:41;4.30;;;2.38;;
37445;SDS011;23307;51.136;14.942;2023-04-25T08:14:07;3.78;;;2.50;;
37445;SDS011;23307;51.136;14.942;2023-04-25T08:16:32;4.75;;;2.72;;
37445;SDS011;23307;51.136;14.942;2023-04-25T08:18:58;3.85;;;2.70;;
37445;SDS011;23307;51.136;14.942;2023-04-25T08:21:24;3.40;;;2.67;;
37445;SDS011;23307;51.136;14.942;2023-04-25T08:23:51;4.07;;;2.42;;
37445;SDS011;23307;51.136;14.942;2023-04-25T08:26:17;3.28;;;2.42;;
37445;SDS011;23307;51.136;14.942;2023-04-25T08:28:42;4.05;;;2.70;;
37445;SDS011;23307;51.136;14.942;2023-04-25T08:31:08;6.95;;;3.15;;
37445;SDS011;23307;51.136;14.942;2023-04-25T08:33:33;5.88;;;2.78;;
37445;SDS011;23307;51.136;14.942;2023-04-25T08:35:59;3.58;;;2.42;;
37445;SDS011;23307;51.136;14.942;2023-04-25T08:38:24;8.23;;;3.25;;
37445;SDS011;23307;51.136;14.942;2023-04-25T08:40:50;5.68;;;2.80;;
37445;SDS011;23307;51.136;14.942;2023-04-25T08:43:17;5.93;;;2.42;;
37445;SDS011;23307;51.136;14.942;2023-04-25T08:45:44;3.72;;;2.60;;
37445;SDS011;23307;51.136;14.942;2023-04-25T08:48:11;6.97;;;3.10;;
37445;SDS011;23307;51.136;14.942;2023-04-25T08:50:51;4.40;;;2.58;;
37445;SDS011;23307;51.136;14.942;2023-04-25T08:53:32;5.10;;;2.35;;
37445;SDS011;23307;51.136;14.942;2023-04-25T08:55:58;3.97;;;1.80;;
37445;SDS011;23307;51.136;14.942;2023-04-25T08:58:27;6.30;;;2.53;;
37445;SDS011;23307;51.136;14.942;2023-04-25T09:00:53;5.10;;;2.00;;
37445;SDS011;23307;51.136;14.942;2023-04-25T09:03:18;3.65;;;2.22;;
37445;SDS011;23307;51.136;14.942;2023-04-25T09:05:44;3.28;;;2.20;;
37445;SDS011;23307;51.136;14.942;2023-04-25T09:08:10;5.18;;;2.50;;
37445;SDS011;23307;51.136;14.942;2023-04-25T09:10:35;2.40;;;2.05;;
37445;SDS011;23307;51.136;14.942;2023-04-25T09:13:08;3.45;;;1.88;;
37445;SDS011;23307;51.136;14.942;2023-04-25T09:15:47;4.70;;;2.65;;
37445;SDS011;23307;51.136;14.942;2023-04-25T09:18:26;2.65;;;1.48;;
37445;SDS011;23307;51.136;14.942;2023-04-25T09:20:54;2.55;;;1.98;;
37445;SDS011;23307;51.136;14.942;2023-04-25T09:23:21;4.75;;;2.20;;
37445;SDS011;23307;51.136;14.942;2023-04-25T09:25:48;3.85;;;2.20;;
37445;SDS011;23307;51.136;14.942;2023-04-25T09:28:15;3.20;;;2.20;;
37445;SDS011;23307;51.136;14.942;2023-04-25T09:30:41;3.95;;;2.20;;
37445;SDS011;23307;51.136;14.942;2023-04-25T09:33:07;5.05;;;2.50;;
37445;SDS011;23307;51.136;14.942;2023-04-25T09:35:35;4.43;;;2.25;;
37445;SDS011;23307;51.136;14.942;2023-04-25T09:38:08;4.03;;;2.20;;
37445;SDS011;23307;51.136;14.942;2023-04-25T09:40:39;2.85;;;1.88;;
37445;SDS011;23307;51.136;14.942;2023-04-25T09:43:29;2.80;;;1.75;;
37445;SDS011;23307;51.136;14.942;2023-04-25T09:45:54;2.53;;;2.17;;
37445;SDS011;23307;51.136;14.942;2023-04-25T09:48:24;3.38;;;2.10;;
37445;SDS011;23307;51.136;14.942;2023-04-25T09:53:39;3.63;;;2.70;;
37445;SDS011;23307;51.136;14.942;2023-04-25T09:56:07;1.98;;;1.75;;
37445;SDS011;23307;51.136;14.942;2023-04-25T09:58:35;4.05;;;2.20;;
37445;SDS011;23307;51.136;14.942;2023-04-25T10:01:03;5.00;;;2.40;;
37445;SDS011;23307;51.136;14.942;2023-04-25T10:03:31;2.88;;;1.65;;
37445;SDS011;23307;51.136;14.942;2023-04-25T10:06:01;2.60;;;1.70;;
37445;SDS011;23307;51.136;14.942;2023-04-25T10:08:30;2.92;;;1.95;;
37445;SDS011;23307;51.136;14.942;2023-04-25T10:10:59;2.38;;;1.42;;
37445;SDS011;23307;51.136;14.942;2023-04-25T10:13:27;3.40;;;1.63;;
37445;SDS011;23307;51.136;14.942;2023-04-25T10:15:55;2.13;;;1.75;;
37445;SDS011;23307;51.136;14.942;2023-04-25T10:18:22;3.28;;;2.05;;
37445;SDS011;23307;51.136;14.942;2023-04-25T10:20:49;4.78;;;2.10;;
37445;SDS011;23307;51.136;14.942;2023-04-25T10:23:15;3.63;;;1.95;;
37445;SDS011;23307;51.136;14.942;2023-04-25T10:25:42;3.30;;;2.10;;
37445;SDS011;23307;51.136;14.942;2023-04-25T10:28:08;1.92;;;1.65;;
37445;SDS011;23307;51.136;14.942;2023-04-25T10:30:33;5.63;;;2.30;;
37445;SDS011;23307;51.136;14.942;2023-04-25T10:32:59;4.65;;;2.13;;
37445;SDS011;23307;51.136;14.942;2023-04-25T10:35:26;2.45;;;2.10;;
37445;SDS011;23307;51.136;14.942;2023-04-25T10:40:22;4.00;;;2.45;;
37445;SDS011;23307;51.136;14.942;2023-04-25T10:42:48;1.80;;;1.63;;
37445;SDS011;23307;51.136;14.942;2023-04-25T10:45:13;2.92;;;2.08;;
37445;SDS011;23307;51.136;14.942;2023-04-25T10:47:45;2.50;;;1.70;;
37445;SDS011;23307;51.136;14.942;2023-04-25T10:50:11;1.65;;;1.50;;
37445;SDS011;23307;51.136;14.942;2023-04-25T10:52:39;4.75;;;2.13;;
37445;SDS011;23307;51.136;14.942;2023-04-25T10:55:05;2.03;;;1.60;;
37445;SDS011;23307;51.136;14.942;2023-04-25T10:57:41;2.55;;;2.30;;
37445;SDS011;23307;51.136;14.942;2023-04-25T11:00:19;5.95;;;3.13;;
37445;SDS011;23307;51.136;14.942;2023-04-25T11:02:48;4.53;;;2.78;;
37445;SDS011;23307;51.136;14.942;2023-04-25T11:08:03;4.68;;;2.35;;
37445;SDS011;23307;51.136;14.942;2023-04-25T11:10:36;3.60;;;2.60;;
37445;SDS011;23307;51.136;14.942;2023-04-25T11:13:01;2.72;;;2.35;;
37445;SDS011;23307;51.136;14.942;2023-04-25T11:15:27;5.57;;;2.92;;
37445;SDS011;23307;51.136;14.942;2023-04-25T11:17:54;3.28;;;2.08;;
37445;SDS011;23307;51.136;14.942;2023-04-25T11:20:20;4.22;;;2.28;;
37445;SDS011;23307;51.136;14.942;2023-04-25T11:22:46;4.15;;;2.60;;
37445;SDS011;23307;51.136;14.942;2023-04-25T11:25:13;5.13;;;3.10;;
37445;SDS011;23307;51.136;14.942;2023-04-25T11:27:52;4.18;;;2.70;;
37445;SDS011;23307;51.136;14.942;2023-04-25T11:30:21;3.78;;;2.67;;
37445;SDS011;23307;51.136;14.942;2023-04-25T11:32:47;3.90;;;3.17;;
37445;SDS011;23307;51.136;14.942;2023-04-25T11:35:13;3.90;;;2.75;;
37445;SDS011;23307;51.136;14.942;2023-04-25T11:37:40;6.70;;;3.28;;
37445;SDS011;23307;51.136;14.942;2023-04-25T11:40:07;4.03;;;3.20;;
37445;SDS011;23307;51.136;14.942;2023-04-25T11:42:34;4.97;;;2.90;;
37445;SDS011;23307;51.136;14.942;2023-04-25T11:45:03;3.28;;;2.47;;
37445;SDS011;23307;51.136;14.942;2023-04-25T11:47:30;3.25;;;2.58;;
37445;SDS011;23307;51.136;14.942;2023-04-25T11:50:00;4.57;;;2.65;;
37445;SDS011;23307;51.136;14.942;2023-04-25T11:52:37;3.03;;;2.28;;
37445;SDS011;23307;51.136;14.942;2023-04-25T11:55:12;2.60;;;2.03;;
37445;SDS011;23307;51.136;14.942;2023-04-25T11:57:42;3.03;;;2.15;;
37445;SDS011;23307;51.136;14.942;2023-04-25T12:02:40;5.57;;;2.30;;
37445;SDS011;23307;51.136;14.942;2023-04-25T12:05:07;2.10;;;1.88;;
37445;SDS011;23307;51.136;14.942;2023-04-25T12:07:34;3.92;;;2.33;;
37445;SDS011;23307;51.136;14.942;2023-04-25T12:10:03;4.22;;;2.35;;
37445;SDS011;23307;51.136;14.942;2023-04-25T12:12:34;2.42;;;1.88;;
37445;SDS011;23307;51.136;14.942;2023-04-25T12:15:12;1.95;;;1.60;;
37445;SDS011;23307;51.136;14.942;2023-04-25T12:17:47;4.10;;;2.20;;
37445;SDS011;23307;51.136;14.942;2023-04-25T12:20:24;3.05;;;2.08;;
37445;SDS011;23307;51.136;14.942;2023-04-25T12:22:50;2.28;;;1.88;;
37445;SDS011;23307;51.136;14.942;2023-04-25T12:28:12;2.97;;;1.80;;
37445;SDS011;23307;51.136;14.942;2023-04-25T12:30:59;2.15;;;1.95;;
37445;SDS011;23307;51.136;14.942;2023-04-25T12:33:26;4.00;;;2.33;;
37445;SDS011;23307;51.136;14.942;2023-04-25T12:35:53;2.40;;;2.13;;
37445;SDS011;23307;51.136;14.942;2023-04-25T12:38:27;9.18;;;2.28;;
37445;SDS011;23307;51.136;14.942;2023-04-25T12:40:58;2.92;;;2.35;;
37445;SDS011;23307;51.136;14.942;2023-04-25T12:43:24;4.80;;;2.42;;
37445;SDS011;23307;51.136;14.942;2023-04-25T12:45:50;3.15;;;2.08;;
37445;SDS011;23307;51.136;14.942;2023-04-25T12:48:17;3.92;;;2.30;;
37445;SDS011;23307;51.136;14.942;2023-04-25T12:50:43;2.67;;;2.47;;
37445;SDS011;23307;51.136;14.942;2023-04-25T12:53:09;5.03;;;2.55;;
37445;SDS011;23307;51.136;14.942;2023-04-25T12:55:36;2.30;;;2.10;;
37445;SDS011;23307;51.136;14.942;2023-04-25T12:58:02;4.82;;;2.70;;
37445;SDS011;23307;51.136;14.942;2023-04-25T13:00:28;6.68;;;3.03;;
37445;SDS011;23307;51.136;14.942;2023-04-25T13:02:54;3.45;;;2.70;;
37445;SDS011;23307;51.136;14.942;2023-04-25T13:05:19;3.22;;;2.92;;
37445;SDS011;23307;51.136;14.942;2023-04-25T13:07:45;4.43;;;3.65;;
37445;SDS011;23307;51.136;14.942;2023-04-25T13:10:10;5.63;;;4.10;;
37445;SDS011;23307;51.136;14.942;2023-04-25T13:12:36;4.70;;;3.63;;
37445;SDS011;23307;51.136;14.942;2023-04-25T13:15:02;6.60;;;3.58;;
37445;SDS011;23307;51.136;14.942;2023-04-25T13:17:27;4.33;;;3.50;;
37445;SDS011;23307;51.136;14.942;2023-04-25T13:19:53;5.05;;;3.50;;
37445;SDS011;23307;51.136;14.942;2023-04-25T13:22:18;5.77;;;3.80;;
37445;SDS011;23307;51.136;14.942;2023-04-25T13:24:45;5.80;;;3.55;;
37445;SDS011;23307;51.136;14.942;2023-04-25T13:27:11;4.40;;;3.35;;
37445;SDS011;23307;51.136;14.942;2023-04-25T13:29:36;5.10;;;3.65;;
37445;SDS011;23307;51.136;14.942;2023-04-25T13:32:03;7.68;;;4.43;;
37445;SDS011;23307;51.136;14.942;2023-04-25T13:34:29;5.03;;;3.95;;
37445;SDS011;23307;51.136;14.942;2023-04-25T13:36:55;5.90;;;4.15;;
37445;SDS011;23307;51.136;14.942;2023-04-25T13:39:21;4.82;;;3.58;;
37445;SDS011;23307;51.136;14.942;2023-04-25T13:41:46;5.32;;;3.13;;
37445;SDS011;23307;51.136;14.942;2023-04-25T13:44:12;3.72;;;3.10;;
37445;SDS011;23307;51.136;14.942;2023-04-25T13:46:37;6.60;;;3.77;;
37445;SDS011;23307;51.136;14.942;2023-04-25T13:49:03;5.53;;;3.90;;
37445;SDS011;23307;51.136;14.942;2023-04-25T13:51:29;7.70;;;3.93;;
37445;SDS011;23307;51.136;14.942;2023-04-25T13:53:55;7.85;;;3.78;;
37445;SDS011;23307;51.136;14.942;2023-04-25T13:56:21;6.20;;;3.10;;
37445;SDS011;23307;51.136;14.942;2023-04-25T13:58:48;4.87;;;3.83;;
37445;SDS011;23307;51.136;14.942;2023-04-25T14:01:15;7.87;;;4.00;;
37445;SDS011;23307;51.136;14.942;2023-04-25T14:03:40;4.10;;;3.10;;
37445;SDS011;23307;51.136;14.942;2023-04-25T14:06:06;6.55;;;3.72;;
37445;SDS011;23307;51.136;14.942;2023-04-25T14:08:33;5.18;;;3.05;;
37445;SDS011;23307;51.136;14.942;2023-04-25T14:10:59;4.75;;;2.88;;
37445;SDS011;23307;51.136;14.942;2023-04-25T14:13:24;7.03;;;2.38;;
37445;SDS011;23307;51.136;14.942;2023-04-25T14:15:50;3.15;;;1.88;;
37445;SDS011;23307;51.136;14.942;2023-04-25T14:18:15;6.63;;;2.58;;
37445;SDS011;23307;51.136;14.942;2023-04-25T14:20:41;3.67;;;2.40;;
37445;SDS011;23307;51.136;14.942;2023-04-25T14:23:07;4.93;;;2.30;;
37445;SDS011;23307;51.136;14.942;2023-04-25T14:25:32;6.50;;;2.75;;
37445;SDS011;23307;51.136;14.942;2023-04-25T14:27:58;5.07;;;2.75;;
37445;SDS011;23307;51.136;14.942;2023-04-25T14:30:23;5.70;;;2.13;;
37445;SDS011;23307;51.136;14.942;2023-04-25T14:32:49;3.42;;;2.10;;
37445;SDS011;23307;51.136;14.942;2023-04-25T14:35:15;7.40;;;3.08;;
37445;SDS011;23307;51.136;14.942;2023-04-25T14:37:40;5.63;;;2.47;;
37445;SDS011;23307;51.136;14.942;2023-04-25T14:40:06;6.93;;;2.83;;
37445;SDS011;23307;51.136;14.942;2023-04-25T14:42:35;3.60;;;2.33;;